Terminal Aerodrome Forecast
Issued by NWS

Home | Current Version | Previous Version | Text Only | Print | Product List | Glossary On
Versions: 1 2 3 4 5 6 7 8 9 10 11 12 13 14 15 16 17 18 19 20 21 22 23 24 25 26 27
284
FTUS41 KAKQ 221601 AAB
TAFPHF
TAF AMD
KPHF 221601Z 2216/2312 15004KT P6SM SCT015 OVC050
      TEMPO 2216/2218 BKN015
     FM221800 16006KT 5SM -SHRA BR BKN015 OVC030
     FM222200 VRB03KT 6SM BR BKN025
     FM230800 04006KT 4SM -RA BR OVC009=

USA.gov is the U.S. government's official web portal to all federal, state and local government web resources and services.